Time;durP1;ratioP1;P1;durP2;ratioP2;P2;SDS_P1;SDS_P2;PMS_P1;PMS_P2;Temp;Humidity;BMP_temperature;BMP_pressure;BME280_temperature;BME280_humidity;BME280_pressure;Samples;Min_cycle;Max_cycle;Signal;HPM_P1;HPM_P2
2023/05/17 00:00:39;;;;;;;6.20;1.30;;;8.40;99.90;;;;;;4981395;28;20538;-76
2023/05/17 00:03:05;;;;;;;14.82;2.63;;;8.40;99.90;;;;;;5008793;28;20222;-76
2023/05/17 00:05:32;;;;;;;10.85;2.20;;;8.40;99.90;;;;;;4989688;28;20052;-76
2023/05/17 00:07:58;;;;;;;19.48;2.83;;;8.40;99.90;;;;;;5002584;28;20037;-76
2023/05/17 00:10:24;;;;;;;6.95;1.50;;;8.30;99.90;;;;;;5008188;28;20068;-75
2023/05/17 00:12:50;;;;;;;9.45;2.20;;;8.30;99.90;;;;;;5013745;28;20033;-75
2023/05/17 00:15:17;;;;;;;8.93;1.70;;;8.30;99.90;;;;;;4989660;28;20041;-76
2023/05/17 00:17:43;;;;;;;11.05;1.90;;;8.30;99.90;;;;;;5006581;28;20040;-75
2023/05/17 00:20:10;;;;;;;9.52;2.05;;;8.30;99.90;;;;;;4983198;28;21814;-75
2023/05/17 00:22:36;;;;;;;8.38;2.50;;;8.30;99.90;;;;;;4987920;28;20037;-75
2023/05/17 00:25:03;;;;;;;8.90;1.83;;;8.20;99.90;;;;;;4988621;28;20045;-76
2023/05/17 00:27:30;;;;;;;14.63;1.48;;;8.20;99.90;;;;;;5006816;28;20048;-75
2023/05/17 00:29:56;;;;;;;11.07;2.28;;;8.20;99.90;;;;;;4991270;28;20037;-75
2023/05/17 00:32:23;;;;;;;8.43;1.63;;;8.20;99.90;;;;;;5018591;28;20679;-75
2023/05/17 00:34:49;;;;;;;16.02;3.22;;;8.20;99.90;;;;;;5013192;28;20036;-76
2023/05/17 00:37:16;;;;;;;8.20;2.05;;;8.20;99.90;;;;;;4987742;28;20048;-76
2023/05/17 00:39:42;;;;;;;11.93;2.05;;;8.20;99.90;;;;;;4997410;28;20036;-76
2023/05/17 00:42:10;;;;;;;18.88;3.17;;;8.20;99.90;;;;;;4989802;28;20047;-75
2023/05/17 00:44:36;;;;;;;15.23;2.22;;;8.20;99.90;;;;;;5003606;28;20033;-76
2023/05/17 00:47:03;;;;;;;10.60;2.15;;;8.20;99.90;;;;;;4987610;28;20045;-76
2023/05/17 00:49:29;;;;;;;22.23;3.28;;;8.20;99.90;;;;;;4994211;28;20036;-75
2023/05/17 00:51:56;;;;;;;13.20;2.20;;;8.10;99.90;;;;;;4995615;28;20083;-75
2023/05/17 00:54:24;;;;;;;13.25;2.72;;;8.20;99.90;;;;;;5015182;28;20056;-75
2023/05/17 00:56:52;;;;;;;20.60;3.13;;;8.20;99.90;;;;;;4989747;28;20107;-76
2023/05/17 00:59:21;;;;;;;9.75;2.53;;;8.20;99.90;;;;;;4999000;28;21711;-76
2023/05/17 01:01:47;;;;;;;12.95;2.67;;;8.20;99.90;;;;;;5000393;28;20178;-76
2023/05/17 01:04:14;;;;;;;9.85;1.60;;;8.10;99.90;;;;;;4989674;28;20048;-76
2023/05/17 01:06:40;;;;;;;14.63;3.00;;;8.10;99.90;;;;;;4972315;28;20052;-76
2023/05/17 01:09:07;;;;;;;10.98;2.20;;;8.10;99.90;;;;;;5007828;28;20040;-75
2023/05/17 01:11:52;;;;;;;8.98;2.08;;;8.10;99.90;;;;;;5028566;28;20499;-75
2023/05/17 01:14:50;;;;;;;14.18;2.70;;;8.10;99.90;;;;;;5019090;28;20045;-75
2023/05/17 01:17:27;;;;;;;14.43;3.00;;;8.10;99.90;;;;;;5004616;28;20036;-75
2023/05/17 01:20:05;;;;;;;9.73;2.22;;;8.00;99.90;;;;;;4979568;28;20036;-75
2023/05/17 01:22:56;;;;;;;13.00;3.22;;;8.00;99.90;;;;;;5008098;28;20033;-76
2023/05/17 01:25:25;;;;;;;16.23;3.20;;;8.00;99.90;;;;;;4977337;28;21787;-76
2023/05/17 01:27:54;;;;;;;8.35;1.92;;;8.00;99.90;;;;;;5008943;28;20624;-75
2023/05/17 01:30:23;;;;;;;11.60;3.28;;;8.00;99.90;;;;;;5008735;28;20400;-74
2023/05/17 01:32:51;;;;;;;10.63;2.25;;;8.00;99.90;;;;;;5019995;28;20407;-74
2023/05/17 01:35:18;;;;;;;12.35;2.88;;;8.00;99.90;;;;;;5001419;28;20033;-74
2023/05/17 01:37:44;;;;;;;9.38;1.67;;;8.00;99.90;;;;;;4980130;28;20045;-74
2023/05/17 01:40:11;;;;;;;8.82;1.80;;;8.00;99.90;;;;;;4985550;28;20518;-74
2023/05/17 01:42:40;;;;;;;9.02;2.55;;;8.10;99.90;;;;;;5010397;28;20040;-74
2023/05/17 01:45:28;;;;;;;15.00;3.65;;;8.10;99.90;;;;;;4993009;28;20052;-74
2023/05/17 01:48:03;;;;;;;14.07;4.00;;;8.10;99.90;;;;;;5005850;28;20366;-75
2023/05/17 01:50:33;;;;;;;12.82;3.03;;;8.20;99.90;;;;;;5003024;28;20055;-75
2023/05/17 01:53:06;;;;;;;8.45;2.40;;;8.10;99.90;;;;;;5005659;28;20044;-75
2023/05/17 01:55:48;;;;;;;12.07;3.30;;;8.10;99.90;;;;;;5017377;28;20082;-75
2023/05/17 01:58:17;;;;;;;12.65;3.00;;;8.20;99.90;;;;;;4992385;28;20099;-74
2023/05/17 02:00:47;;;;;;;18.70;3.70;;;8.20;99.90;;;;;;5002279;28;20447;-74
2023/05/17 02:03:23;;;;;;;11.05;2.97;;;8.20;99.90;;;;;;5008099;28;20507;-75
2023/05/17 02:05:52;;;;;;;15.30;3.13;;;8.20;99.90;;;;;;4993528;28;20036;-74
2023/05/17 02:08:18;;;;;;;9.48;2.35;;;8.30;99.90;;;;;;5008902;28;20067;-74
2023/05/17 02:10:44;;;;;;;13.13;3.53;;;8.30;99.90;;;;;;5004595;28;20396;-75
2023/05/17 02:13:11;;;;;;;15.27;4.13;;;8.30;99.90;;;;;;5003263;28;20028;-74
2023/05/17 02:15:38;;;;;;;14.23;3.90;;;8.30;99.90;;;;;;5020119;28;20041;-74
2023/05/17 02:18:05;;;;;;;12.45;4.03;;;8.30;99.90;;;;;;5015272;28;20041;-74
2023/05/17 02:20:31;;;;;;;13.18;3.50;;;8.30;99.90;;;;;;4999092;28;21557;-75
2023/05/17 02:22:58;;;;;;;13.20;3.63;;;8.30;99.90;;;;;;4991532;28;20051;-75
2023/05/17 02:25:25;;;;;;;17.08;3.65;;;8.20;99.90;;;;;;5008945;28;20037;-74
2023/05/17 02:27:52;;;;;;;13.07;3.92;;;8.20;99.90;;;;;;4977114;28;20404;-74
2023/05/17 02:30:21;;;;;;;10.02;2.83;;;8.20;99.90;;;;;;4983862;28;20030;-74
2023/05/17 02:32:50;;;;;;;12.82;3.70;;;8.20;99.90;;;;;;5001460;28;20067;-74
2023/05/17 02:35:16;;;;;;;17.77;4.22;;;8.20;99.90;;;;;;5018188;28;20410;-75
2023/05/17 02:37:42;;;;;;;8.27;2.72;;;8.20;99.90;;;;;;5000704;28;20943;-74
2023/05/17 02:40:09;;;;;;;14.70;3.50;;;8.30;99.90;;;;;;5002382;28;21176;-74
2023/05/17 02:42:35;;;;;;;15.32;4.60;;;8.40;99.90;;;;;;4992649;28;20036;-74
2023/05/17 02:45:02;;;;;;;8.70;3.08;;;8.40;99.90;;;;;;5008602;28;20037;-74
2023/05/17 02:47:29;;;;;;;12.43;3.13;;;8.50;99.90;;;;;;5009676;28;20048;-74
2023/05/17 02:49:56;;;;;;;10.32;3.47;;;8.60;99.90;;;;;;4997014;28;20033;-74
2023/05/17 02:52:22;;;;;;;16.75;3.60;;;8.70;99.90;;;;;;4978509;28;20136;-74
2023/05/17 02:54:50;;;;;;;18.55;5.38;;;8.80;99.90;;;;;;5017492;28;20041;-74
2023/05/17 02:57:16;;;;;;;17.38;4.70;;;8.80;99.90;;;;;;5003058;28;20500;-74
2023/05/17 02:59:42;;;;;;;13.32;3.92;;;8.80;99.90;;;;;;5007040;28;20044;-74
2023/05/17 03:02:09;;;;;;;15.43;3.58;;;8.90;99.90;;;;;;4991000;28;20037;-75
2023/05/17 03:04:35;;;;;;;13.98;4.18;;;8.90;99.90;;;;;;5009074;28;20044;-75
2023/05/17 03:07:02;;;;;;;9.63;3.28;;;8.90;99.90;;;;;;5007698;28;20041;-75
2023/05/17 03:09:29;;;;;;;11.93;4.25;;;8.90;99.90;;;;;;4986336;28;20412;-74
2023/05/17 03:11:56;;;;;;;18.98;4.63;;;8.90;99.90;;;;;;4989161;28;20044;-74
2023/05/17 03:14:29;;;;;;;8.75;3.70;;;8.80;99.90;;;;;;4996873;28;20025;-75
2023/05/17 03:16:56;;;;;;;9.05;3.47;;;8.70;99.90;;;;;;5018967;28;20037;-75
2023/05/17 03:19:23;;;;;;;11.40;3.60;;;8.70;99.90;;;;;;5012101;28;20060;-74
2023/05/17 03:21:51;;;;;;;13.32;3.10;;;8.60;99.90;;;;;;4991399;28;20787;-74
2023/05/17 03:24:17;;;;;;;11.68;4.55;;;8.70;99.90;;;;;;4991187;28;21667;-74
2023/05/17 03:26:44;;;;;;;9.48;3.38;;;8.70;99.90;;;;;;5024157;28;20036;-74
2023/05/17 03:29:12;;;;;;;12.82;3.75;;;8.60;99.90;;;;;;5002107;28;20041;-74
2023/05/17 03:31:41;;;;;;;8.65;3.10;;;8.60;99.90;;;;;;4989198;28;20048;-74
2023/05/17 03:34:07;;;;;;;16.25;4.47;;;8.70;99.90;;;;;;5007801;28;20037;-74
2023/05/17 03:36:34;;;;;;;14.15;3.15;;;8.70;99.90;;;;;;4998845;28;20041;-75
2023/05/17 03:39:01;;;;;;;9.10;2.45;;;8.70;99.90;;;;;;5013335;28;20037;-75
2023/05/17 03:41:30;;;;;;;10.18;2.90;;;8.80;99.90;;;;;;4993255;28;20049;-75
2023/05/17 03:43:57;;;;;;;10.82;3.28;;;8.70;99.90;;;;;;4975405;28;20056;-75
2023/05/17 03:46:24;;;;;;;10.50;2.90;;;8.70;99.90;;;;;;4990785;28;20037;-75
2023/05/17 03:48:50;;;;;;;9.23;3.20;;;8.70;99.90;;;;;;5003295;28;20040;-75
2023/05/17 03:51:17;;;;;;;12.23;2.63;;;8.70;99.90;;;;;;4984446;28;20057;-75
2023/05/17 03:53:44;;;;;;;9.77;2.55;;;8.70;99.90;;;;;;4975017;28;20616;-75
2023/05/17 03:56:10;;;;;;;11.63;2.63;;;8.70;99.90;;;;;;4992080;28;20040;-75
2023/05/17 03:58:37;;;;;;;8.80;1.77;;;8.70;99.90;;;;;;5000298;28;20049;-75
2023/05/17 04:01:05;;;;;;;9.55;2.03;;;8.70;99.90;;;;;;4991984;28;20060;-75
2023/05/17 04:03:32;;;;;;;10.93;2.13;;;8.60;99.90;;;;;;4999463;28;20043;-75
2023/05/17 04:06:06;;;;;;;8.75;1.90;;;8.50;99.90;;;;;;4997729;28;20033;-75
2023/05/17 04:08:34;;;;;;;8.25;2.67;;;8.50;99.90;;;;;;4995260;28;20541;-75
2023/05/17 04:11:08;;;;;;;9.95;2.25;;;8.40;99.90;;;;;;5000163;28;20044;-75
2023/05/17 04:13:38;;;;;;;6.65;1.48;;;8.40;99.90;;;;;;4995058;28;20044;-75
2023/05/17 04:16:06;;;;;;;7.90;1.95;;;8.40;99.90;;;;;;5010657;28;20048;-75
2023/05/17 04:18:36;;;;;;;13.60;3.33;;;8.30;99.90;;;;;;4987033;28;20057;-75
2023/05/17 04:21:03;;;;;;;9.88;2.95;;;8.30;99.90;;;;;;4993611;28;20044;-75
2023/05/17 04:23:33;;;;;;;12.50;3.28;;;8.30;99.90;;;;;;5006930;28;20041;-75
2023/05/17 04:26:00;;;;;;;9.77;2.78;;;8.30;99.90;;;;;;4980735;28;20052;-75
2023/05/17 04:28:29;;;;;;;10.25;2.13;;;8.30;99.90;;;;;;4997049;28;20043;-75
2023/05/17 04:30:55;;;;;;;10.05;2.85;;;8.30;99.90;;;;;;4988481;28;20507;-74
2023/05/17 04:33:22;;;;;;;7.40;1.85;;;8.30;99.90;;;;;;4991882;28;20040;-75
2023/05/17 04:35:49;;;;;;;6.63;2.20;;;8.20;99.90;;;;;;5005392;28;20041;-75
2023/05/17 04:38:17;;;;;;;10.43;2.00;;;8.20;99.90;;;;;;4997629;28;20052;-75
2023/05/17 04:40:44;;;;;;;12.65;2.42;;;8.20;99.90;;;;;;4997298;28;20032;-74
2023/05/17 04:43:10;;;;;;;6.93;1.73;;;8.20;99.90;;;;;;4991212;28;20041;-75
2023/05/17 04:45:38;;;;;;;8.65;2.45;;;8.20;99.90;;;;;;4999569;28;20041;-75
2023/05/17 04:48:04;;;;;;;10.18;2.65;;;8.30;99.90;;;;;;4994040;28;20036;-75
2023/05/17 04:50:31;;;;;;;10.00;2.92;;;8.30;99.90;;;;;;4970505;28;20064;-73
2023/05/17 04:52:57;;;;;;;7.80;2.40;;;8.50;99.90;;;;;;5007547;28;20503;-73
2023/05/17 04:55:24;;;;;;;9.25;2.03;;;8.60;99.90;;;;;;5007076;28;20048;-73
2023/05/17 04:57:51;;;;;;;11.02;3.22;;;8.80;99.90;;;;;;4994445;28;20048;-75
2023/05/17 05:00:19;;;;;;;9.77;4.45;;;9.00;99.90;;;;;;4978920;28;20036;-75
2023/05/17 05:02:51;;;;;;;9.15;2.80;;;9.10;99.90;;;;;;5004210;28;21028;-75
2023/05/17 05:05:19;;;;;;;8.52;2.72;;;9.20;99.90;;;;;;5003036;28;20036;-75
2023/05/17 05:07:46;;;;;;;9.85;2.78;;;9.40;99.90;;;;;;5010727;28;20029;-75
2023/05/17 05:10:12;;;;;;;10.73;2.55;;;9.50;99.90;;;;;;5003971;28;22688;-76
2023/05/17 05:12:39;;;;;;;8.80;2.25;;;9.60;99.90;;;;;;5013523;28;20037;-76
2023/05/17 05:15:06;;;;;;;11.65;2.72;;;9.80;99.90;;;;;;5010665;28;20045;-72
2023/05/17 05:17:33;;;;;;;5.47;1.70;;;9.90;99.90;;;;;;5008535;28;20442;-75
2023/05/17 05:20:00;;;;;;;10.15;2.17;;;10.00;99.90;;;;;;5007945;28;20811;-73
2023/05/17 05:22:26;;;;;;;14.32;2.33;;;10.10;99.90;;;;;;5022159;28;20544;-72
2023/05/17 05:24:54;;;;;;;7.43;1.95;;;10.20;99.90;;;;;;5001774;28;20099;-74
2023/05/17 05:27:21;;;;;;;8.30;1.67;;;10.40;99.90;;;;;;4980052;28;20690;-73
2023/05/17 05:29:47;;;;;;;8.18;1.80;;;10.50;99.90;;;;;;4972709;28;20041;-73
2023/05/17 05:32:14;;;;;;;14.13;2.80;;;10.50;99.90;;;;;;4990699;28;20039;-73
2023/05/17 05:34:44;;;;;;;9.00;1.73;;;10.50;99.90;;;;;;4972471;28;20056;-74
2023/05/17 05:37:11;;;;;;;11.30;1.83;;;10.60;99.90;;;;;;4986076;28;20048;-74
2023/05/17 05:39:37;;;;;;;10.55;2.30;;;10.60;99.90;;;;;;4982243;28;20245;-74
2023/05/17 05:42:04;;;;;;;13.30;2.63;;;10.70;99.90;;;;;;4998298;28;22244;-74
2023/05/17 05:44:31;;;;;;;17.45;3.15;;;10.70;99.90;;;;;;4998226;28;20041;-75
2023/05/17 05:46:57;;;;;;;10.65;2.80;;;10.70;99.90;;;;;;5013517;28;20033;-74
2023/05/17 05:49:25;;;;;;;8.00;1.85;;;10.80;99.90;;;;;;4966500;28;20453;-74
2023/05/17 05:51:52;;;;;;;13.77;1.80;;;10.80;99.90;;;;;;5001524;28;20053;-74
2023/05/17 05:54:19;;;;;;;14.88;3.15;;;10.80;99.90;;;;;;4987547;28;20048;-74
2023/05/17 05:56:46;;;;;;;13.25;2.35;;;10.90;99.90;;;;;;4990626;28;20048;-74
2023/05/17 05:59:14;;;;;;;12.63;3.53;;;10.90;99.90;;;;;;4992473;28;20502;-77
2023/05/17 06:01:41;;;;;;;13.82;4.15;;;11.00;99.90;;;;;;5009436;28;20466;-76
2023/05/17 06:04:07;;;;;;;12.65;3.58;;;11.00;99.90;;;;;;5018446;28;20036;-78
2023/05/17 06:06:33;;;;;;;17.48;4.05;;;11.10;99.90;;;;;;5022562;28;20040;-78
2023/05/17 06:09:00;;;;;;;14.80;4.10;;;11.20;99.90;;;;;;5014738;28;20045;-77
2023/05/17 06:11:26;;;;;;;9.88;2.63;;;11.50;99.90;;;;;;4990375;28;20025;-79
2023/05/17 06:13:52;;;;;;;7.28;1.92;;;11.70;99.90;;;;;;5009648;28;20025;-74
2023/05/17 06:16:19;;;;;;;11.18;1.73;;;11.90;99.90;;;;;;5006615;28;20041;-74
2023/05/17 06:18:45;;;;;;;11.45;1.67;;;12.00;99.90;;;;;;5001857;28;20037;-74
2023/05/17 06:21:14;;;;;;;10.85;1.42;;;11.90;99.90;;;;;;4996740;28;20032;-74
2023/05/17 06:23:40;;;;;;;11.48;1.30;;;12.00;99.90;;;;;;4990285;28;20885;-74
2023/05/17 06:26:09;;;;;;;7.88;1.52;;;12.00;99.90;;;;;;5004816;28;20507;-75
2023/05/17 06:28:38;;;;;;;7.93;1.00;;;11.90;99.90;;;;;;5001266;28;20045;-74
2023/05/17 06:31:05;;;;;;;9.98;1.77;;;11.80;99.90;;;;;;5004771;28;20033;-74
2023/05/17 06:33:31;;;;;;;9.40;1.25;;;11.70;99.90;;;;;;5009014;28;20047;-74
2023/05/17 06:35:58;;;;;;;10.27;1.80;;;11.60;99.90;;;;;;4990851;28;20048;-74
2023/05/17 06:38:24;;;;;;;13.35;2.60;;;11.50;99.90;;;;;;5008889;28;20041;-74
2023/05/17 06:40:56;;;;;;;8.75;1.25;;;11.50;99.90;;;;;;5000442;28;20021;-74
2023/05/17 06:43:22;;;;;;;11.90;2.25;;;11.50;99.90;;;;;;4990895;28;20029;-75
2023/05/17 06:45:49;;;;;;;17.13;2.28;;;11.50;99.90;;;;;;5015592;28;20047;-75
2023/05/17 06:48:16;;;;;;;6.88;1.80;;;11.60;99.90;;;;;;4989763;28;20033;-75
2023/05/17 06:50:42;;;;;;;11.07;1.85;;;11.80;99.90;;;;;;5011187;28;20049;-74
2023/05/17 06:53:08;;;;;;;8.02;1.50;;;11.90;99.90;;;;;;5015239;28;20796;-75
2023/05/17 06:55:34;;;;;;;10.27;0.95;;;12.00;99.90;;;;;;5013757;28;20029;-75
2023/05/17 06:58:01;;;;;;;7.28;0.93;;;12.20;99.90;;;;;;5014729;28;20044;-75
2023/05/17 07:00:27;;;;;;;7.22;1.08;;;12.30;99.90;;;;;;5004135;28;20369;-75
2023/05/17 07:02:54;;;;;;;5.00;0.65;;;12.40;99.90;;;;;;5013972;28;20044;-75
2023/05/17 07:05:22;;;;;;;8.20;0.90;;;12.40;99.90;;;;;;5018533;28;20024;-75
2023/05/17 07:07:49;;;;;;;6.93;0.90;;;12.60;99.90;;;;;;5024439;28;20471;-75
2023/05/17 07:10:15;;;;;;;8.55;0.98;;;12.80;99.90;;;;;;4999260;28;20033;-75
2023/05/17 07:12:41;;;;;;;12.43;0.90;;;12.90;99.90;;;;;;5017799;28;20491;-75
2023/05/17 07:15:08;;;;;;;8.43;0.77;;;12.90;99.90;;;;;;5007632;28;20045;-75
2023/05/17 07:17:36;;;;;;;8.55;0.98;;;13.00;99.90;;;;;;4996828;28;20492;-75
2023/05/17 07:20:02;;;;;;;5.43;0.63;;;13.10;99.90;;;;;;4988237;28;20048;-75
2023/05/17 07:22:29;;;;;;;4.35;0.50;;;13.20;99.90;;;;;;5014026;28;20357;-75
2023/05/17 07:24:55;;;;;;;5.85;0.60;;;13.30;99.90;;;;;;5015042;28;20433;-75
2023/05/17 07:27:21;;;;;;;7.28;0.82;;;13.60;99.90;;;;;;5005065;28;20021;-75
2023/05/17 07:29:48;;;;;;;10.40;0.80;;;13.60;99.90;;;;;;5014056;28;20044;-75
2023/05/17 07:32:14;;;;;;;6.88;0.52;;;13.70;99.90;;;;;;5003493;28;20044;-75
2023/05/17 07:34:41;;;;;;;8.70;1.08;;;13.70;99.90;;;;;;5013099;28;20376;-75
2023/05/17 07:37:07;;;;;;;7.90;1.05;;;13.70;99.90;;;;;;5012766;28;20029;-75
2023/05/17 07:39:33;;;;;;;5.80;1.08;;;13.80;99.90;;;;;;4991096;28;20029;-75
2023/05/17 07:42:00;;;;;;;3.78;0.50;;;13.90;99.90;;;;;;5011396;28;20037;-75
2023/05/17 07:44:26;;;;;;;4.75;0.55;;;14.10;99.90;;;;;;5011707;28;20052;-76
2023/05/17 07:46:52;;;;;;;9.27;0.60;;;14.30;99.90;;;;;;4984690;28;20045;-75
2023/05/17 07:49:18;;;;;;;4.13;0.45;;;14.30;99.90;;;;;;5002350;28;20048;-75
2023/05/17 07:51:45;;;;;;;5.72;0.65;;;14.30;99.90;;;;;;5019495;28;20060;-75
2023/05/17 07:54:26;;;;;;;10.57;1.63;;;14.10;99.90;;;;;;5016563;28;20028;-75
2023/05/17 07:56:54;;;;;;;6.22;0.85;;;13.90;99.90;;;;;;5011810;28;20416;-76
2023/05/17 07:59:23;;;;;;;3.90;0.60;;;13.70;99.90;;;;;;4990615;28;20376;-76
2023/05/17 08:01:50;;;;;;;8.13;0.70;;;13.70;99.90;;;;;;5007488;28;20494;-75
2023/05/17 08:04:18;;;;;;;4.55;0.60;;;13.60;99.90;;;;;;5013356;28;20064;-75
2023/05/17 08:06:47;;;;;;;4.18;0.50;;;13.60;99.90;;;;;;4995233;28;20578;-76
2023/05/17 08:09:15;;;;;;;3.83;0.50;;;13.50;99.90;;;;;;5015193;28;20365;-75
2023/05/17 08:11:44;;;;;;;5.20;1.08;;;13.30;99.90;;;;;;5020658;28;20032;-75
2023/05/17 08:14:15;;;;;;;6.03;0.50;;;13.30;99.90;;;;;;5020634;28;20044;-75
2023/05/17 08:16:42;;;;;;;4.75;0.70;;;13.30;99.90;;;;;;5025072;28;21426;-75
2023/05/17 08:19:15;;;;;;;3.38;0.65;;;13.40;99.90;;;;;;5006536;28;20044;-76
2023/05/17 08:21:41;;;;;;;6.47;0.80;;;13.70;99.90;;;;;;5007747;28;20025;-76
2023/05/17 08:24:08;;;;;;;7.47;0.70;;;13.90;99.90;;;;;;4979775;28;20081;-76
2023/05/17 08:26:35;;;;;;;5.63;0.50;;;14.10;99.90;;;;;;5012834;28;20499;-76
2023/05/17 08:29:01;;;;;;;6.68;0.52;;;14.00;99.90;;;;;;4994897;28;20037;-76
2023/05/17 08:31:28;;;;;;;4.75;0.70;;;14.00;99.90;;;;;;5001022;28;20040;-76
2023/05/17 08:33:54;;;;;;;4.65;0.50;;;13.90;99.90;;;;;;5024049;28;20052;-75
2023/05/17 08:36:21;;;;;;;6.30;0.85;;;13.90;99.90;;;;;;5013217;28;20480;-76
2023/05/17 08:38:47;;;;;;;6.10;1.05;;;13.90;99.90;;;;;;4993110;28;20519;-75
2023/05/17 08:41:14;;;;;;;5.32;0.50;;;14.20;99.90;;;;;;5005879;28;20040;-76
2023/05/17 08:43:41;;;;;;;5.35;0.40;;;14.70;99.90;;;;;;4981041;28;21445;-76
2023/05/17 08:46:09;;;;;;;7.00;0.80;;;14.90;99.90;;;;;;4996189;28;20495;-76
2023/05/17 08:48:40;;;;;;;3.33;0.60;;;15.00;99.90;;;;;;4995969;28;21575;-76
2023/05/17 08:51:10;;;;;;;3.30;0.60;;;15.00;99.90;;;;;;4994781;28;20040;-76
2023/05/17 08:53:37;;;;;;;5.60;0.47;;;15.10;99.90;;;;;;5022010;28;20033;-76
2023/05/17 08:56:05;;;;;;;6.60;0.47;;;15.30;99.90;;;;;;5021973;28;20422;-76
2023/05/17 08:58:36;;;;;;;3.25;0.40;;;15.40;99.90;;;;;;5010471;28;20032;-76
2023/05/17 09:01:03;;;;;;;4.28;0.40;;;15.40;99.90;;;;;;5003053;28;20044;-76
2023/05/17 09:03:31;;;;;;;4.43;0.60;;;15.40;99.90;;;;;;5010612;28;20048;-76
2023/05/17 09:05:58;;;;;;;4.15;0.50;;;15.40;99.90;;;;;;4993917;28;20391;-76
2023/05/17 09:08:25;;;;;;;4.47;0.40;;;15.50;99.90;;;;;;4996310;28;20032;-76
2023/05/17 09:10:53;;;;;;;5.55;0.70;;;15.50;99.90;;;;;;4989340;28;21230;-76
2023/05/17 09:13:19;;;;;;;3.30;0.50;;;15.80;99.90;;;;;;5023907;28;20419;-76
2023/05/17 09:15:48;;;;;;;7.65;0.52;;;16.00;99.90;;;;;;5020908;28;20415;-77
2023/05/17 09:18:15;;;;;;;6.28;0.80;;;16.40;99.90;;;;;;5015848;28;20059;-77
2023/05/17 09:20:48;;;;;;;5.50;0.60;;;16.50;99.90;;;;;;4970789;28;20087;-77
2023/05/17 09:23:19;;;;;;;4.35;0.73;;;16.50;99.90;;;;;;4995193;28;20037;-77
2023/05/17 09:25:48;;;;;;;7.65;0.47;;;16.50;99.90;;;;;;5011072;28;20037;-76
2023/05/17 09:28:19;;;;;;;6.18;0.60;;;16.30;99.90;;;;;;5013740;28;20024;-76
2023/05/17 09:30:48;;;;;;;3.53;0.50;;;16.10;99.90;;;;;;5005519;28;20025;-76
2023/05/17 09:33:14;;;;;;;5.20;0.70;;;15.90;99.90;;;;;;5020635;28;20029;-76
2023/05/17 09:35:42;;;;;;;4.82;0.50;;;15.70;99.90;;;;;;4992325;28;21776;-77
2023/05/17 09:38:12;;;;;;;4.70;0.50;;;15.60;99.80;;;;;;5012567;28;20024;-76
2023/05/17 09:40:47;;;;;;;5.22;0.40;;;15.60;99.60;;;;;;5014229;28;20045;-76
2023/05/17 09:43:15;;;;;;;4.43;0.60;;;16.00;99.60;;;;;;4993971;28;20040;-77
2023/05/17 09:45:41;;;;;;;4.18;0.88;;;16.30;99.10;;;;;;4995058;28;20345;-77
2023/05/17 09:48:16;;;;;;;4.45;0.45;;;16.70;97.90;;;;;;5013357;28;20047;-78
2023/05/17 09:50:52;;;;;;;5.00;0.60;;;16.90;97.30;;;;;;4985100;28;20053;-77
2023/05/17 09:53:30;;;;;;;2.83;0.45;;;17.00;96.70;;;;;;5002477;28;20051;-77
2023/05/17 09:56:01;;;;;;;4.57;0.50;;;16.90;96.80;;;;;;5021640;28;20051;-77
2023/05/17 09:58:31;;;;;;;6.28;0.45;;;16.90;96.80;;;;;;5013876;28;20041;-77
2023/05/17 10:01:04;;;;;;;4.15;0.60;;;16.90;96.40;;;;;;5003840;28;20040;-77
2023/05/17 10:03:33;;;;;;;3.08;0.50;;;17.00;95.50;;;;;;4993823;28;20044;-76
2023/05/17 10:06:02;;;;;;;3.17;0.50;;;17.00;94.40;;;;;;5007685;28;20157;-77
2023/05/17 10:08:29;;;;;;;4.93;1.33;;;17.10;94.40;;;;;;4993429;28;20052;-78
2023/05/17 10:11:04;;;;;;;7.00;1.73;;;17.20;94.30;;;;;;4983620;28;20068;-79
2023/05/17 10:13:53;;;;;;;3.20;0.50;;;17.40;93.40;;;;;;5002183;28;20392;-80
2023/05/17 10:16:22;;;;;;;3.03;0.40;;;17.60;92.90;;;;;;5001273;28;20025;-81
2023/05/17 10:18:48;;;;;;;5.18;0.70;;;17.80;92.40;;;;;;5013479;28;20041;-78
2023/05/17 10:21:16;;;;;;;3.70;0.50;;;17.90;92.60;;;;;;5004656;28;20495;-77
2023/05/17 10:23:43;;;;;;;2.83;0.50;;;17.90;91.90;;;;;;4991636;28;20041;-78
2023/05/17 10:26:12;;;;;;;5.05;0.90;;;17.70;91.60;;;;;;5006494;28;20480;-77
2023/05/17 10:28:38;;;;;;;3.05;0.50;;;17.70;91.10;;;;;;5007813;28;20516;-77
2023/05/17 10:31:06;;;;;;;3.58;0.40;;;17.90;91.00;;;;;;4982999;28;20041;-79
2023/05/17 10:33:32;;;;;;;5.10;0.40;;;18.30;90.60;;;;;;5016198;28;20052;-78
2023/05/17 10:36:01;;;;;;;5.78;0.70;;;18.60;90.20;;;;;;5020303;28;20026;-79
2023/05/17 10:38:27;;;;;;;4.75;0.60;;;18.90;89.50;;;;;;5015701;28;20059;-78
2023/05/17 10:40:55;;;;;;;4.13;2.08;;;19.20;88.80;;;;;;5000109;28;20072;-77
2023/05/17 10:43:23;;;;;;;4.00;0.80;;;19.40;87.60;;;;;;5013050;28;20036;-79
2023/05/17 10:45:50;;;;;;;4.07;1.00;;;19.50;85.60;;;;;;5012732;28;20033;-80
2023/05/17 10:48:17;;;;;;;4.50;0.80;;;19.80;84.10;;;;;;5012757;28;20029;-80
2023/05/17 10:50:45;;;;;;;2.80;0.40;;;20.10;82.50;;;;;;5005206;28;20447;-77
2023/05/17 10:53:12;;;;;;;3.22;0.50;;;20.30;81.60;;;;;;5017683;28;20052;-83
2023/05/17 10:55:43;;;;;;;5.55;0.70;;;20.50;80.80;;;;;;5020000;28;20037;-77
2023/05/17 10:58:10;;;;;;;3.17;0.47;;;20.90;78.40;;;;;;5033461;28;20029;-78
2023/05/17 11:00:41;;;;;;;6.50;0.60;;;21.10;77.90;;;;;;4990529;28;20037;-79
2023/05/17 11:03:18;;;;;;;4.72;0.50;;;21.30;75.90;;;;;;5009155;28;20040;-79
2023/05/17 11:06:12;;;;;;;3.30;0.77;;;21.70;73.80;;;;;;5025370;28;20367;-79
2023/05/17 11:09:04;;;;;;;4.80;0.70;;;22.00;72.00;;;;;;4988695;28;20049;-80
2023/05/17 11:11:30;;;;;;;2.22;0.50;;;22.50;72.20;;;;;;4972006;28;20685;-79
2023/05/17 11:14:01;;;;;;;5.97;0.80;;;22.70;69.90;;;;;;5014211;28;20048;-78
2023/05/17 11:16:34;;;;;;;4.75;0.50;;;22.70;69.30;;;;;;5021519;28;20036;-78
2023/05/17 11:19:09;;;;;;;4.25;0.70;;;22.80;69.60;;;;;;5017314;28;20032;-78
2023/05/17 11:21:45;;;;;;;5.93;0.70;;;22.70;66.40;;;;;;4988683;28;20432;-78
2023/05/17 11:24:16;;;;;;;4.00;0.65;;;22.70;65.40;;;;;;5009170;28;20037;-78
2023/05/17 11:26:44;;;;;;;5.70;0.95;;;23.00;66.10;;;;;;5007409;28;20043;-78
2023/05/17 11:29:11;;;;;;;5.43;0.90;;;23.30;62.40;;;;;;5002839;28;20041;-78
2023/05/17 11:31:50;;;;;;;7.82;0.63;;;23.00;61.10;;;;;;4988169;28;20040;-77
2023/05/17 11:34:17;;;;;;;6.97;0.60;;;22.60;60.80;;;;;;5002350;28;20428;-78
2023/05/17 11:36:53;;;;;;;8.52;0.98;;;22.70;61.60;;;;;;5020621;28;20033;-77
2023/05/17 11:39:23;;;;;;;5.93;0.90;;;22.90;60.30;;;;;;5010321;28;20053;-77
2023/05/17 11:41:51;;;;;;;4.82;0.60;;;23.20;60.40;;;;;;5005309;28;20029;-77
2023/05/17 11:44:32;;;;;;;7.60;1.15;;;22.90;59.50;;;;;;5005747;28;20049;-77
2023/05/17 11:47:03;;;;;;;4.90;0.80;;;22.90;60.60;;;;;;5005657;28;20029;-77
2023/05/17 11:49:34;;;;;;;8.75;1.52;;;23.30;60.90;;;;;;5002647;28;20396;-77
2023/05/17 11:52:00;;;;;;;3.00;0.70;;;23.40;59.30;;;;;;5005356;28;20400;-77
2023/05/17 11:54:29;;;;;;;7.97;1.10;;;23.60;59.10;;;;;;5017890;28;20057;-77
2023/05/17 11:56:56;;;;;;;4.65;1.00;;;24.10;58.10;;;;;;5003226;28;20040;-78
2023/05/17 11:59:23;;;;;;;4.53;1.15;;;24.50;57.80;;;;;;5015709;28;20048;-77
2023/05/17 12:01:50;;;;;;;7.75;0.90;;;25.00;57.50;;;;;;5009117;28;20033;-77
2023/05/17 12:04:24;;;;;;;6.22;1.05;;;25.50;56.40;;;;;;5008450;28;20480;-77
2023/05/17 12:06:53;;;;;;;10.20;1.45;;;26.20;56.40;;;;;;5007227;28;20028;-77
2023/05/17 12:09:20;;;;;;;6.68;1.08;;;26.80;54.70;;;;;;5003751;28;20052;-76
2023/05/17 12:11:46;;;;;;;8.80;1.67;;;26.70;53.60;;;;;;4983990;28;20040;-77
2023/05/17 12:14:17;;;;;;;7.50;1.25;;;26.50;51.40;;;;;;4991013;28;20036;-76
2023/05/17 12:16:46;;;;;;;6.50;1.17;;;25.60;52.30;;;;;;5012302;28;20033;-76
2023/05/17 12:19:19;;;;;;;5.22;1.17;;;24.90;53.10;;;;;;4996314;28;20701;-76
2023/05/17 12:21:46;;;;;;;6.22;0.90;;;24.20;53.90;;;;;;5014282;28;20051;-76
2023/05/17 12:24:13;;;;;;;7.20;1.27;;;24.20;54.80;;;;;;5011809;28;21835;-76
2023/05/17 12:26:46;;;;;;;9.00;1.90;;;24.90;54.40;;;;;;4990370;28;20747;-76
2023/05/17 12:29:14;;;;;;;11.05;2.15;;;25.40;53.20;;;;;;5002888;28;20099;-76
2023/05/17 12:31:46;;;;;;;6.30;0.90;;;26.00;53.10;;;;;;4987462;28;20040;-73
2023/05/17 12:34:15;;;;;;;6.97;1.25;;;26.40;51.90;;;;;;5006476;28;20427;-74
2023/05/17 12:36:43;;;;;;;6.60;0.98;;;26.20;51.00;;;;;;5010662;28;20028;-74
2023/05/17 12:39:10;;;;;;;8.35;1.48;;;26.30;51.80;;;;;;4999160;28;20029;-75
2023/05/17 12:41:37;;;;;;;6.65;1.30;;;26.70;50.40;;;;;;5015153;28;20041;-74
2023/05/17 12:44:06;;;;;;;5.63;1.10;;;27.20;50.80;;;;;;5010526;28;20033;-75
2023/05/17 12:46:33;;;;;;;9.65;1.40;;;27.60;49.30;;;;;;4972718;28;20071;-75
2023/05/17 12:49:08;;;;;;;9.25;1.95;;;27.80;48.00;;;;;;4986717;28;20546;-75
2023/05/17 12:51:42;;;;;;;7.75;1.10;;;27.60;47.40;;;;;;4973021;28;20567;-75
2023/05/17 12:54:08;;;;;;;7.22;0.98;;;27.20;47.50;;;;;;5009295;28;20040;-75